sensor_id;sensor_type;location;lat;lon;timestamp;P1;durP1;ratioP1;P2;durP2;ratioP2
63280;SDS011;49406;51.044;3.766;2023-04-24T00:01:30;4.30;;;3.00;;
63280;SDS011;49406;51.044;3.766;2023-04-24T00:04:05;3.70;;;1.80;;
63280;SDS011;49406;51.044;3.766;2023-04-24T00:06:42;11.90;;;5.20;;
63280;SDS011;49406;51.044;3.766;2023-04-24T00:09:21;8.40;;;4.10;;
63280;SDS011;49406;51.044;3.766;2023-04-24T00:11:55;4.50;;;3.20;;
63280;SDS011;49406;51.044;3.766;2023-04-24T00:14:32;9.10;;;2.80;;
63280;SDS011;49406;51.044;3.766;2023-04-24T00:17:07;6.90;;;3.80;;
63280;SDS011;49406;51.044;3.766;2023-04-24T00:19:41;6.70;;;2.80;;
63280;SDS011;49406;51.044;3.766;2023-04-24T00:22:16;4.40;;;2.40;;
63280;SDS011;49406;51.044;3.766;2023-04-24T00:24:52;6.40;;;3.90;;
63280;SDS011;49406;51.044;3.766;2023-04-24T00:27:27;7.10;;;4.70;;
63280;SDS011;49406;51.044;3.766;2023-04-24T00:30:02;11.70;;;5.40;;
63280;SDS011;49406;51.044;3.766;2023-04-24T00:32:38;10.00;;;5.70;;
63280;SDS011;49406;51.044;3.766;2023-04-24T00:35:12;12.70;;;5.90;;
63280;SDS011;49406;51.044;3.766;2023-04-24T00:37:47;7.40;;;4.40;;
63280;SDS011;49406;51.044;3.766;2023-04-24T00:40:22;5.40;;;3.60;;
63280;SDS011;49406;51.044;3.766;2023-04-24T00:45:29;9.30;;;5.80;;
63280;SDS011;49406;51.044;3.766;2023-04-24T00:50:37;7.10;;;3.60;;
63280;SDS011;49406;51.044;3.766;2023-04-24T00:53:12;5.70;;;2.40;;
63280;SDS011;49406;51.044;3.766;2023-04-24T00:55:46;6.60;;;2.80;;
63280;SDS011;49406;51.044;3.766;2023-04-24T00:58:21;3.80;;;3.40;;
63280;SDS011;49406;51.044;3.766;2023-04-24T01:00:57;8.40;;;4.40;;
63280;SDS011;49406;51.044;3.766;2023-04-24T01:03:34;1.00;;;0.60;;
63280;SDS011;49406;51.044;3.766;2023-04-24T01:06:09;3.40;;;1.90;;
63280;SDS011;49406;51.044;3.766;2023-04-24T01:11:18;4.00;;;1.30;;
63280;SDS011;49406;51.044;3.766;2023-04-24T01:13:53;12.70;;;4.80;;
63280;SDS011;49406;51.044;3.766;2023-04-24T01:16:30;5.10;;;2.90;;
63280;SDS011;49406;51.044;3.766;2023-04-24T01:19:05;7.00;;;3.20;;
63280;SDS011;49406;51.044;3.766;2023-04-24T01:21:40;2.80;;;2.40;;
63280;SDS011;49406;51.044;3.766;2023-04-24T01:26:51;4.40;;;2.00;;
63280;SDS011;49406;51.044;3.766;2023-04-24T01:29:26;1.20;;;0.70;;
63280;SDS011;49406;51.044;3.766;2023-04-24T01:32:01;2.70;;;1.20;;
63280;SDS011;49406;51.044;3.766;2023-04-24T01:34:37;4.90;;;2.00;;
63280;SDS011;49406;51.044;3.766;2023-04-24T01:37:11;6.50;;;3.40;;
63280;SDS011;49406;51.044;3.766;2023-04-24T01:39:47;3.00;;;2.30;;
63280;SDS011;49406;51.044;3.766;2023-04-24T01:42:21;7.10;;;4.20;;
63280;SDS011;49406;51.044;3.766;2023-04-24T01:44:56;2.80;;;1.90;;
63280;SDS011;49406;51.044;3.766;2023-04-24T01:47:31;6.50;;;3.70;;
63280;SDS011;49406;51.044;3.766;2023-04-24T01:50:07;6.20;;;2.90;;
63280;SDS011;49406;51.044;3.766;2023-04-24T01:52:43;4.60;;;1.90;;
63280;SDS011;49406;51.044;3.766;2023-04-24T01:55:17;5.90;;;3.30;;
63280;SDS011;49406;51.044;3.766;2023-04-24T01:57:52;3.50;;;1.80;;
63280;SDS011;49406;51.044;3.766;2023-04-24T02:00:29;7.40;;;3.30;;
63280;SDS011;49406;51.044;3.766;2023-04-24T02:03:04;8.40;;;3.20;;
63280;SDS011;49406;51.044;3.766;2023-04-24T02:05:38;5.40;;;2.90;;
63280;SDS011;49406;51.044;3.766;2023-04-24T02:08:16;6.20;;;3.60;;
63280;SDS011;49406;51.044;3.766;2023-04-24T02:10:50;3.60;;;3.30;;
63280;SDS011;49406;51.044;3.766;2023-04-24T02:13:25;7.20;;;2.90;;
63280;SDS011;49406;51.044;3.766;2023-04-24T02:15:59;9.20;;;5.50;;
63280;SDS011;49406;51.044;3.766;2023-04-24T02:18:34;4.70;;;3.30;;
63280;SDS011;49406;51.044;3.766;2023-04-24T02:21:08;4.90;;;3.10;;
63280;SDS011;49406;51.044;3.766;2023-04-24T02:23:43;9.50;;;5.30;;
63280;SDS011;49406;51.044;3.766;2023-04-24T02:26:18;6.10;;;3.20;;
63280;SDS011;49406;51.044;3.766;2023-04-24T02:28:52;10.30;;;5.50;;
63280;SDS011;49406;51.044;3.766;2023-04-24T02:31:27;7.60;;;4.30;;
63280;SDS011;49406;51.044;3.766;2023-04-24T02:34:01;7.50;;;4.50;;
63280;SDS011;49406;51.044;3.766;2023-04-24T02:36:36;10.80;;;5.80;;
63280;SDS011;49406;51.044;3.766;2023-04-24T02:39:10;7.60;;;4.80;;
63280;SDS011;49406;51.044;3.766;2023-04-24T02:41:47;10.20;;;5.00;;
63280;SDS011;49406;51.044;3.766;2023-04-24T02:44:22;10.80;;;6.00;;
63280;SDS011;49406;51.044;3.766;2023-04-24T02:46:56;10.60;;;4.70;;
63280;SDS011;49406;51.044;3.766;2023-04-24T02:49:31;6.00;;;3.10;;
63280;SDS011;49406;51.044;3.766;2023-04-24T02:52:06;8.10;;;5.70;;
63280;SDS011;49406;51.044;3.766;2023-04-24T02:54:40;8.40;;;4.40;;
63280;SDS011;49406;51.044;3.766;2023-04-24T02:57:15;3.10;;;1.10;;
63280;SDS011;49406;51.044;3.766;2023-04-24T02:59:49;5.00;;;2.60;;
63280;SDS011;49406;51.044;3.766;2023-04-24T03:02:24;3.70;;;1.70;;
63280;SDS011;49406;51.044;3.766;2023-04-24T03:04:58;4.40;;;2.70;;
63280;SDS011;49406;51.044;3.766;2023-04-24T03:07:33;2.70;;;1.40;;
63280;SDS011;49406;51.044;3.766;2023-04-24T03:10:09;2.30;;;1.30;;
63280;SDS011;49406;51.044;3.766;2023-04-24T03:12:43;2.00;;;1.20;;
63280;SDS011;49406;51.044;3.766;2023-04-24T03:15:18;0.40;;;0.40;;
63280;SDS011;49406;51.044;3.766;2023-04-24T03:17:52;5.10;;;1.80;;
63280;SDS011;49406;51.044;3.766;2023-04-24T03:23:00;2.50;;;1.30;;
63280;SDS011;49406;51.044;3.766;2023-04-24T03:25:35;2.20;;;1.80;;
63280;SDS011;49406;51.044;3.766;2023-04-24T03:28:09;4.60;;;2.30;;
63280;SDS011;49406;51.044;3.766;2023-04-24T03:30:44;4.20;;;2.70;;
63280;SDS011;49406;51.044;3.766;2023-04-24T03:33:18;3.70;;;2.80;;
63280;SDS011;49406;51.044;3.766;2023-04-24T03:35:53;4.30;;;2.70;;
63280;SDS011;49406;51.044;3.766;2023-04-24T03:38:27;3.80;;;2.00;;
63280;SDS011;49406;51.044;3.766;2023-04-24T03:41:02;5.50;;;3.10;;
63280;SDS011;49406;51.044;3.766;2023-04-24T03:43:36;13.40;;;4.20;;
63280;SDS011;49406;51.044;3.766;2023-04-24T03:46:11;6.30;;;3.40;;
63280;SDS011;49406;51.044;3.766;2023-04-24T03:48:46;4.00;;;3.00;;
63280;SDS011;49406;51.044;3.766;2023-04-24T03:51:21;4.10;;;2.50;;
63280;SDS011;49406;51.044;3.766;2023-04-24T03:53:55;2.50;;;1.40;;
63280;SDS011;49406;51.044;3.766;2023-04-24T03:56:30;6.80;;;4.40;;
63280;SDS011;49406;51.044;3.766;2023-04-24T03:59:04;10.50;;;4.20;;
63280;SDS011;49406;51.044;3.766;2023-04-24T04:01:39;5.80;;;3.40;;
63280;SDS011;49406;51.044;3.766;2023-04-24T04:04:13;4.60;;;2.90;;
63280;SDS011;49406;51.044;3.766;2023-04-24T04:06:48;14.70;;;4.60;;
63280;SDS011;49406;51.044;3.766;2023-04-24T04:09:22;4.10;;;2.70;;
63280;SDS011;49406;51.044;3.766;2023-04-24T04:11:57;8.70;;;3.70;;
63280;SDS011;49406;51.044;3.766;2023-04-24T04:14:32;7.30;;;2.50;;
63280;SDS011;49406;51.044;3.766;2023-04-24T04:17:06;5.50;;;3.10;;
63280;SDS011;49406;51.044;3.766;2023-04-24T04:19:41;28.30;;;3.20;;
63280;SDS011;49406;51.044;3.766;2023-04-24T04:22:15;6.40;;;3.60;;
63280;SDS011;49406;51.044;3.766;2023-04-24T04:24:49;4.10;;;1.90;;
63280;SDS011;49406;51.044;3.766;2023-04-24T04:27:24;4.80;;;3.40;;
63280;SDS011;49406;51.044;3.766;2023-04-24T04:30:00;13.30;;;4.20;;
63280;SDS011;49406;51.044;3.766;2023-04-24T04:32:36;6.20;;;2.30;;
63280;SDS011;49406;51.044;3.766;2023-04-24T04:35:10;11.10;;;3.70;;
63280;SDS011;49406;51.044;3.766;2023-04-24T04:37:45;5.90;;;2.90;;
63280;SDS011;49406;51.044;3.766;2023-04-24T04:40:19;6.50;;;3.70;;
63280;SDS011;49406;51.044;3.766;2023-04-24T04:42:54;7.80;;;3.50;;
63280;SDS011;49406;51.044;3.766;2023-04-24T04:45:28;12.70;;;3.80;;
63280;SDS011;49406;51.044;3.766;2023-04-24T04:48:04;4.20;;;2.70;;
63280;SDS011;49406;51.044;3.766;2023-04-24T04:50:40;8.60;;;3.20;;
63280;SDS011;49406;51.044;3.766;2023-04-24T04:53:14;13.60;;;2.50;;
63280;SDS011;49406;51.044;3.766;2023-04-24T04:55:49;6.70;;;4.30;;
63280;SDS011;49406;51.044;3.766;2023-04-24T04:58:23;11.40;;;5.60;;
63280;SDS011;49406;51.044;3.766;2023-04-24T05:00:58;8.30;;;3.80;;
63280;SDS011;49406;51.044;3.766;2023-04-24T05:03:32;10.00;;;3.10;;
63280;SDS011;49406;51.044;3.766;2023-04-24T05:06:07;11.80;;;3.50;;
63280;SDS011;49406;51.044;3.766;2023-04-24T05:08:42;12.60;;;5.20;;
63280;SDS011;49406;51.044;3.766;2023-04-24T05:11:16;4.00;;;1.10;;
63280;SDS011;49406;51.044;3.766;2023-04-24T05:13:51;8.30;;;5.50;;
63280;SDS011;49406;51.044;3.766;2023-04-24T05:16:25;10.80;;;5.40;;
63280;SDS011;49406;51.044;3.766;2023-04-24T05:19:00;6.60;;;2.20;;
63280;SDS011;49406;51.044;3.766;2023-04-24T05:21:35;8.00;;;4.60;;
63280;SDS011;49406;51.044;3.766;2023-04-24T05:24:10;6.70;;;4.20;;
63280;SDS011;49406;51.044;3.766;2023-04-24T05:26:45;3.10;;;1.90;;
63280;SDS011;49406;51.044;3.766;2023-04-24T05:29:19;8.60;;;4.30;;
63280;SDS011;49406;51.044;3.766;2023-04-24T05:31:54;10.10;;;5.10;;
63280;SDS011;49406;51.044;3.766;2023-04-24T05:34:28;10.50;;;4.40;;
63280;SDS011;49406;51.044;3.766;2023-04-24T05:37:03;8.60;;;4.20;;
63280;SDS011;49406;51.044;3.766;2023-04-24T05:39:40;7.20;;;4.10;;
63280;SDS011;49406;51.044;3.766;2023-04-24T05:42:14;9.90;;;5.00;;
63280;SDS011;49406;51.044;3.766;2023-04-24T05:44:49;4.20;;;1.20;;
63280;SDS011;49406;51.044;3.766;2023-04-24T05:47:25;7.70;;;4.30;;
63280;SDS011;49406;51.044;3.766;2023-04-24T05:49:59;12.80;;;5.80;;
63280;SDS011;49406;51.044;3.766;2023-04-24T05:52:34;6.90;;;4.30;;
63280;SDS011;49406;51.044;3.766;2023-04-24T05:55:09;4.90;;;2.40;;
63280;SDS011;49406;51.044;3.766;2023-04-24T05:57:43;7.00;;;3.00;;
63280;SDS011;49406;51.044;3.766;2023-04-24T06:00:18;15.00;;;5.80;;
63280;SDS011;49406;51.044;3.766;2023-04-24T06:02:53;11.20;;;6.20;;
63280;SDS011;49406;51.044;3.766;2023-04-24T06:05:28;35.30;;;10.40;;
63280;SDS011;49406;51.044;3.766;2023-04-24T06:08:02;25.00;;;7.80;;
63280;SDS011;49406;51.044;3.766;2023-04-24T06:10:37;10.60;;;5.50;;
63280;SDS011;49406;51.044;3.766;2023-04-24T06:13:12;10.70;;;4.50;;
63280;SDS011;49406;51.044;3.766;2023-04-24T06:15:47;12.40;;;5.20;;
63280;SDS011;49406;51.044;3.766;2023-04-24T06:18:21;17.80;;;8.30;;
63280;SDS011;49406;51.044;3.766;2023-04-24T06:20:56;9.10;;;3.10;;
63280;SDS011;49406;51.044;3.766;2023-04-24T06:23:31;16.60;;;6.60;;
63280;SDS011;49406;51.044;3.766;2023-04-24T06:26:05;9.60;;;4.60;;
63280;SDS011;49406;51.044;3.766;2023-04-24T06:28:40;15.50;;;6.30;;
63280;SDS011;49406;51.044;3.766;2023-04-24T06:31:14;5.70;;;3.10;;
63280;SDS011;49406;51.044;3.766;2023-04-24T06:33:49;9.50;;;4.80;;
63280;SDS011;49406;51.044;3.766;2023-04-24T06:36:23;15.00;;;3.10;;
63280;SDS011;49406;51.044;3.766;2023-04-24T06:38:58;9.40;;;5.30;;
63280;SDS011;49406;51.044;3.766;2023-04-24T06:41:32;7.60;;;4.70;;
63280;SDS011;49406;51.044;3.766;2023-04-24T06:44:07;12.10;;;4.60;;
63280;SDS011;49406;51.044;3.766;2023-04-24T06:46:41;11.60;;;6.10;;
63280;SDS011;49406;51.044;3.766;2023-04-24T06:55:56;11.80;;;3.60;;
63280;SDS011;49406;51.044;3.766;2023-04-24T06:58:31;6.90;;;4.00;;
63280;SDS011;49406;51.044;3.766;2023-04-24T07:01:06;7.50;;;4.50;;
63280;SDS011;49406;51.044;3.766;2023-04-24T07:03:40;5.80;;;2.00;;
63280;SDS011;49406;51.044;3.766;2023-04-24T07:06:15;11.00;;;5.70;;
63280;SDS011;49406;51.044;3.766;2023-04-24T07:08:50;9.60;;;4.90;;
63280;SDS011;49406;51.044;3.766;2023-04-24T07:11:25;9.00;;;5.00;;
63280;SDS011;49406;51.044;3.766;2023-04-24T07:14:00;0.40;;;0.40;;
63280;SDS011;49406;51.044;3.766;2023-04-24T07:16:35;6.70;;;2.70;;
63280;SDS011;49406;51.044;3.766;2023-04-24T07:19:09;5.70;;;2.30;;
63280;SDS011;49406;51.044;3.766;2023-04-24T07:21:44;8.50;;;3.70;;
63280;SDS011;49406;51.044;3.766;2023-04-24T07:24:18;5.50;;;3.00;;
63280;SDS011;49406;51.044;3.766;2023-04-24T07:26:53;5.40;;;2.90;;
63280;SDS011;49406;51.044;3.766;2023-04-24T07:29:28;3.80;;;1.30;;
63280;SDS011;49406;51.044;3.766;2023-04-24T07:32:02;8.30;;;2.90;;
63280;SDS011;49406;51.044;3.766;2023-04-24T07:34:37;6.60;;;1.80;;
63280;SDS011;49406;51.044;3.766;2023-04-24T07:37:12;1.50;;;1.40;;
63280;SDS011;49406;51.044;3.766;2023-04-24T07:39:46;6.90;;;3.30;;
63280;SDS011;49406;51.044;3.766;2023-04-24T07:42:21;16.50;;;5.00;;
63280;SDS011;49406;51.044;3.766;2023-04-24T07:44:55;7.10;;;3.40;;
63280;SDS011;49406;51.044;3.766;2023-04-24T07:47:31;7.40;;;2.70;;
63280;SDS011;49406;51.044;3.766;2023-04-24T07:50:07;7.20;;;2.70;;
63280;SDS011;49406;51.044;3.766;2023-04-24T07:52:42;10.10;;;4.10;;
63280;SDS011;49406;51.044;3.766;2023-04-24T07:55:17;2.70;;;1.50;;
63280;SDS011;49406;51.044;3.766;2023-04-24T07:57:52;9.70;;;2.90;;
63280;SDS011;49406;51.044;3.766;2023-04-24T08:00:26;3.40;;;1.10;;
63280;SDS011;49406;51.044;3.766;2023-04-24T08:03:01;2.90;;;2.10;;
63280;SDS011;49406;51.044;3.766;2023-04-24T08:05:36;5.00;;;3.20;;
63280;SDS011;49406;51.044;3.766;2023-04-24T08:08:11;2.10;;;1.80;;
63280;SDS011;49406;51.044;3.766;2023-04-24T08:10:46;6.30;;;1.70;;
63280;SDS011;49406;51.044;3.766;2023-04-24T08:13:20;3.80;;;1.60;;
63280;SDS011;49406;51.044;3.766;2023-04-24T08:15:55;4.80;;;1.90;;
63280;SDS011;49406;51.044;3.766;2023-04-24T08:18:30;2.90;;;1.90;;
63280;SDS011;49406;51.044;3.766;2023-04-24T08:21:06;10.20;;;2.00;;
63280;SDS011;49406;51.044;3.766;2023-04-24T08:23:41;6.80;;;2.00;;
63280;SDS011;49406;51.044;3.766;2023-04-24T08:26:16;4.70;;;3.40;;
63280;SDS011;49406;51.044;3.766;2023-04-24T08:28:50;3.80;;;2.30;;
63280;SDS011;49406;51.044;3.766;2023-04-24T08:31:25;19.20;;;3.00;;
63280;SDS011;49406;51.044;3.766;2023-04-24T08:34:00;6.80;;;2.50;;
63280;SDS011;49406;51.044;3.766;2023-04-24T08:36:34;5.00;;;1.90;;
63280;SDS011;49406;51.044;3.766;2023-04-24T08:39:09;3.10;;;1.10;;
63280;SDS011;49406;51.044;3.766;2023-04-24T08:41:44;2.60;;;1.20;;
63280;SDS011;49406;51.044;3.766;2023-04-24T08:44:20;7.10;;;2.70;;
63280;SDS011;49406;51.044;3.766;2023-04-24T08:46:55;7.20;;;1.80;;
63280;SDS011;49406;51.044;3.766;2023-04-24T08:49:30;2.60;;;1.80;;
63280;SDS011;49406;51.044;3.766;2023-04-24T08:52:06;3.60;;;1.60;;
63280;SDS011;49406;51.044;3.766;2023-04-24T08:54:41;5.70;;;1.60;;
63280;SDS011;49406;51.044;3.766;2023-04-24T08:57:17;3.30;;;1.60;;
63280;SDS011;49406;51.044;3.766;2023-04-24T08:59:52;2.60;;;1.30;;
63280;SDS011;49406;51.044;3.766;2023-04-24T09:02:28;5.60;;;2.10;;
63280;SDS011;49406;51.044;3.766;2023-04-24T09:07:39;4.70;;;2.40;;
63280;SDS011;49406;51.044;3.766;2023-04-24T09:10:19;6.60;;;2.10;;
63280;SDS011;49406;51.044;3.766;2023-04-24T09:12:54;10.40;;;3.20;;
63280;SDS011;49406;51.044;3.766;2023-04-24T09:15:33;2.30;;;1.60;;
63280;SDS011;49406;51.044;3.766;2023-04-24T09:18:07;3.00;;;1.30;;
63280;SDS011;49406;51.044;3.766;2023-04-24T09:21:01;5.10;;;2.90;;
63280;SDS011;49406;51.044;3.766;2023-04-24T09:23:39;3.30;;;2.70;;
63280;SDS011;49406;51.044;3.766;2023-04-24T09:26:15;9.80;;;1.90;;
63280;SDS011;49406;51.044;3.766;2023-04-24T09:28:51;6.10;;;2.40;;
63280;SDS011;49406;51.044;3.766;2023-04-24T09:34:02;1.50;;;0.80;;
63280;SDS011;49406;51.044;3.766;2023-04-24T09:36:39;2.80;;;2.00;;
63280;SDS011;49406;51.044;3.766;2023-04-24T09:39:15;4.80;;;1.30;;
63280;SDS011;49406;51.044;3.766;2023-04-24T09:41:52;3.50;;;2.10;;
63280;SDS011;49406;51.044;3.766;2023-04-24T09:44:29;6.60;;;2.20;;
63280;SDS011;49406;51.044;3.766;2023-04-24T09:47:07;2.00;;;1.40;;
63280;SDS011;49406;51.044;3.766;2023-04-24T09:49:43;2.00;;;1.20;;
63280;SDS011;49406;51.044;3.766;2023-04-24T09:52:17;10.10;;;2.50;;
63280;SDS011;49406;51.044;3.766;2023-04-24T09:54:53;40.90;;;2.80;;
63280;SDS011;49406;51.044;3.766;2023-04-24T09:57:28;6.20;;;2.50;;
63280;SDS011;49406;51.044;3.766;2023-04-24T10:00:03;0.90;;;0.70;;
63280;SDS011;49406;51.044;3.766;2023-04-24T10:02:39;4.50;;;2.60;;
63280;SDS011;49406;51.044;3.766;2023-04-24T10:05:13;4.50;;;1.80;;
63280;SDS011;49406;51.044;3.766;2023-04-24T10:07:49;2.50;;;1.70;;
63280;SDS011;49406;51.044;3.766;2023-04-24T10:10:24;4.00;;;1.50;;
63280;SDS011;49406;51.044;3.766;2023-04-24T10:13:00;4.70;;;3.00;;
63280;SDS011;49406;51.044;3.766;2023-04-24T10:15:36;2.50;;;1.60;;
63280;SDS011;49406;51.044;3.766;2023-04-24T10:18:12;3.20;;;1.20;;
63280;SDS011;49406;51.044;3.766;2023-04-24T10:20:46;4.60;;;2.40;;
63280;SDS011;49406;51.044;3.766;2023-04-24T10:23:21;1.90;;;1.40;;
63280;SDS011;49406;51.044;3.766;2023-04-24T10:25:57;6.10;;;3.30;;
63280;SDS011;49406;51.044;3.766;2023-04-24T10:28:33;2.70;;;1.90;;
63280;SDS011;49406;51.044;3.766;2023-04-24T10:31:08;4.80;;;1.90;;
63280;SDS011;49406;51.044;3.766;2023-04-24T10:33:44;10.00;;;1.80;;
63280;SDS011;49406;51.044;3.766;2023-04-24T10:36:21;4.80;;;3.30;;
63280;SDS011;49406;51.044;3.766;2023-04-24T10:38:58;3.70;;;1.70;;
63280;SDS011;49406;51.044;3.766;2023-04-24T10:41:36;3.40;;;1.90;;
63280;SDS011;49406;51.044;3.766;2023-04-24T10:44:12;4.50;;;2.00;;
63280;SDS011;49406;51.044;3.766;2023-04-24T10:46:52;3.50;;;2.40;;
63280;SDS011;49406;51.044;3.766;2023-04-24T10:49:30;4.20;;;1.30;;
63280;SDS011;49406;51.044;3.766;2023-04-24T10:52:05;6.70;;;2.70;;
63280;SDS011;49406;51.044;3.766;2023-04-24T10:54:45;3.00;;;2.10;;
63280;SDS011;49406;51.044;3.766;2023-04-24T10:57:27;4.40;;;2.60;;
63280;SDS011;49406;51.044;3.766;2023-04-24T11:00:14;3.00;;;2.00;;
63280;SDS011;49406;51.044;3.766;2023-04-24T11:02:52;3.50;;;2.10;;
63280;SDS011;49406;51.044;3.766;2023-04-24T11:08:26;5.00;;;2.90;;
63280;SDS011;49406;51.044;3.766;2023-04-24T11:11:03;11.30;;;1.80;;
63280;SDS011;49406;51.044;3.766;2023-04-24T11:16:31;1.20;;;0.80;;
63280;SDS011;49406;51.044;3.766;2023-04-24T11:19:08;5.40;;;1.70;;
63280;SDS011;49406;51.044;3.766;2023-04-24T11:21:54;8.60;;;1.90;;
63280;SDS011;49406;51.044;3.766;2023-04-24T11:24:31;4.90;;;2.00;;
63280;SDS011;49406;51.044;3.766;2023-04-24T11:27:13;4.30;;;2.10;;
63280;SDS011;49406;51.044;3.766;2023-04-24T11:29:58;46.00;;;3.20;;
63280;SDS011;49406;51.044;3.766;2023-04-24T11:32:36;2.40;;;1.40;;
63280;SDS011;49406;51.044;3.766;2023-04-24T11:35:14;3.00;;;1.90;;
63280;SDS011;49406;51.044;3.766;2023-04-24T11:37:52;3.20;;;1.90;;
63280;SDS011;49406;51.044;3.766;2023-04-24T11:40:27;5.50;;;2.30;;
63280;SDS011;49406;51.044;3.766;2023-04-24T11:43:01;4.90;;;2.90;;
63280;SDS011;49406;51.044;3.766;2023-04-24T11:45:37;2.40;;;1.60;;
63280;SDS011;49406;51.044;3.766;2023-04-24T11:48:20;3.80;;;2.30;;
63280;SDS011;49406;51.044;3.766;2023-04-24T11:50:55;3.90;;;1.80;;
63280;SDS011;49406;51.044;3.766;2023-04-24T11:53:29;3.10;;;2.70;;
63280;SDS011;49406;51.044;3.766;2023-04-24T11:56:05;2.90;;;1.70;;
63280;SDS011;49406;51.044;3.766;2023-04-24T11:58:41;3.10;;;1.80;;
63280;SDS011;49406;51.044;3.766;2023-04-24T12:01:15;5.30;;;1.10;;
63280;SDS011;49406;51.044;3.766;2023-04-24T12:03:50;5.70;;;1.50;;
63280;SDS011;49406;51.044;3.766;2023-04-24T12:06:32;2.90;;;1.00;;
63280;SDS011;49406;51.044;3.766;2023-04-24T12:09:06;2.40;;;1.30;;
63280;SDS011;49406;51.044;3.766;2023-04-24T12:11:53;3.70;;;1.50;;
63280;SDS011;49406;51.044;3.766;2023-04-24T12:14:29;2.70;;;1.40;;
63280;SDS011;49406;51.044;3.766;2023-04-24T12:17:03;2.60;;;2.00;;
63280;SDS011;49406;51.044;3.766;2023-04-24T12:19:44;1.00;;;0.40;;
63280;SDS011;49406;51.044;3.766;2023-04-24T12:22:19;2.20;;;1.00;;
63280;SDS011;49406;51.044;3.766;2023-04-24T12:24:57;1.40;;;0.70;;
63280;SDS011;49406;51.044;3.766;2023-04-24T12:27:33;0.80;;;0.70;;
63280;SDS011;49406;51.044;3.766;2023-04-24T12:30:09;2.50;;;1.90;;
63280;SDS011;49406;51.044;3.766;2023-04-24T12:32:46;3.10;;;1.30;;
63280;SDS011;49406;51.044;3.766;2023-04-24T12:35:23;4.20;;;1.80;;
63280;SDS011;49406;51.044;3.766;2023-04-24T12:38:06;3.90;;;1.50;;
63280;SDS011;49406;51.044;3.766;2023-04-24T12:40:42;1.70;;;1.10;;
63280;SDS011;49406;51.044;3.766;2023-04-24T12:43:17;4.90;;;1.40;;
63280;SDS011;49406;51.044;3.766;2023-04-24T12:45:52;0.40;;;0.40;;
63280;SDS011;49406;51.044;3.766;2023-04-24T12:48:27;3.90;;;0.90;;
63280;SDS011;49406;51.044;3.766;2023-04-24T12:51:02;3.10;;;0.70;;
63280;SDS011;49406;51.044;3.766;2023-04-24T12:53:37;1.30;;;0.80;;
63280;SDS011;49406;51.044;3.766;2023-04-24T12:56:11;2.20;;;1.40;;
63280;SDS011;49406;51.044;3.766;2023-04-24T12:58:46;2.20;;;0.90;;
63280;SDS011;49406;51.044;3.766;2023-04-24T13:01:20;1.70;;;1.10;;
63280;SDS011;49406;51.044;3.766;2023-04-24T13:03:54;1.40;;;0.70;;
63280;SDS011;49406;51.044;3.766;2023-04-24T13:06:29;1.40;;;0.80;;
63280;SDS011;49406;51.044;3.766;2023-04-24T13:09:04;2.50;;;1.20;;
63280;SDS011;49406;51.044;3.766;2023-04-24T13:11:39;1.90;;;1.30;;
63280;SDS011;49406;51.044;3.766;2023-04-24T13:14:13;1.00;;;0.50;;
63280;SDS011;49406;51.044;3.766;2023-04-24T13:16:48;3.20;;;0.80;;
63280;SDS011;49406;51.044;3.766;2023-04-24T13:19:23;1.50;;;1.20;;
63280;SDS011;49406;51.044;3.766;2023-04-24T13:21:58;1.00;;;0.60;;
63280;SDS011;49406;51.044;3.766;2023-04-24T13:24:33;1.10;;;0.60;;
63280;SDS011;49406;51.044;3.766;2023-04-24T13:27:07;4.90;;;2.10;;
63280;SDS011;49406;51.044;3.766;2023-04-24T13:29:42;1.10;;;0.50;;
63280;SDS011;49406;51.044;3.766;2023-04-24T13:32:17;0.80;;;0.60;;
63280;SDS011;49406;51.044;3.766;2023-04-24T13:34:51;1.80;;;0.70;;
63280;SDS011;49406;51.044;3.766;2023-04-24T13:37:26;2.10;;;0.90;;
63280;SDS011;49406;51.044;3.766;2023-04-24T13:40:00;1.80;;;0.80;;
63280;SDS011;49406;51.044;3.766;2023-04-24T13:42:37;1.20;;;0.60;;
63280;SDS011;49406;51.044;3.766;2023-04-24T13:45:12;1.20;;;0.80;;
63280;SDS011;49406;51.044;3.766;2023-04-24T13:47:46;4.40;;;1.30;;
63280;SDS011;49406;51.044;3.766;2023-04-24T13:50:21;0.50;;;0.20;;
63280;SDS011;49406;51.044;3.766;2023-04-24T13:52:56;0.80;;;0.50;;
63280;SDS011;49406;51.044;3.766;2023-04-24T13:55:31;1.40;;;0.60;;
63280;SDS011;49406;51.044;3.766;2023-04-24T13:58:06;1.90;;;1.20;;
63280;SDS011;49406;51.044;3.766;2023-04-24T14:00:42;2.70;;;0.70;;
63280;SDS011;49406;51.044;3.766;2023-04-24T14:03:16;0.50;;;0.30;;
63280;SDS011;49406;51.044;3.766;2023-04-24T14:05:51;1.80;;;0.70;;
63280;SDS011;49406;51.044;3.766;2023-04-24T14:10:58;1.50;;;0.70;;
63280;SDS011;49406;51.044;3.766;2023-04-24T14:13:33;3.40;;;1.00;;
63280;SDS011;49406;51.044;3.766;2023-04-24T14:16:09;1.10;;;0.70;;
63280;SDS011;49406;51.044;3.766;2023-04-24T14:21:17;7.30;;;1.50;;
63280;SDS011;49406;51.044;3.766;2023-04-24T14:23:51;1.00;;;0.50;;
63280;SDS011;49406;51.044;3.766;2023-04-24T14:26:26;1.60;;;0.80;;
63280;SDS011;49406;51.044;3.766;2023-04-24T14:29:00;2.60;;;1.00;;
63280;SDS011;49406;51.044;3.766;2023-04-24T14:31:35;2.40;;;0.90;;
63280;SDS011;49406;51.044;3.766;2023-04-24T14:34:09;1.00;;;0.50;;
63280;SDS011;49406;51.044;3.766;2023-04-24T14:36:43;1.40;;;0.70;;
63280;SDS011;49406;51.044;3.766;2023-04-24T14:39:18;0.50;;;0.50;;
63280;SDS011;49406;51.044;3.766;2023-04-24T14:41:53;1.70;;;0.90;;
63280;SDS011;49406;51.044;3.766;2023-04-24T14:44:28;1.30;;;0.70;;
63280;SDS011;49406;51.044;3.766;2023-04-24T14:47:03;1.70;;;1.20;;
63280;SDS011;49406;51.044;3.766;2023-04-24T14:49:38;2.20;;;0.90;;
63280;SDS011;49406;51.044;3.766;2023-04-24T14:52:12;2.10;;;1.40;;
63280;SDS011;49406;51.044;3.766;2023-04-24T14:54:47;1.40;;;1.00;;
63280;SDS011;49406;51.044;3.766;2023-04-24T14:57:22;1.40;;;0.70;;
63280;SDS011;49406;51.044;3.766;2023-04-24T14:59:57;1.20;;;0.80;;
63280;SDS011;49406;51.044;3.766;2023-04-24T15:02:32;2.80;;;1.30;;
63280;SDS011;49406;51.044;3.766;2023-04-24T15:05:09;0.80;;;0.50;;
63280;SDS011;49406;51.044;3.766;2023-04-24T15:07:43;1.50;;;0.70;;
63280;SDS011;49406;51.044;3.766;2023-04-24T15:10:18;1.10;;;0.60;;
63280;SDS011;49406;51.044;3.766;2023-04-24T15:12:54;7.60;;;1.10;;
63280;SDS011;49406;51.044;3.766;2023-04-24T15:15:28;2.70;;;0.80;;
63280;SDS011;49406;51.044;3.766;2023-04-24T15:18:03;2.20;;;1.20;;
63280;SDS011;49406;51.044;3.766;2023-04-24T15:20:39;2.20;;;1.00;;
63280;SDS011;49406;51.044;3.766;2023-04-24T15:23:14;1.70;;;1.00;;
63280;SDS011;49406;51.044;3.766;2023-04-24T15:25:48;2.20;;;0.80;;
63280;SDS011;49406;51.044;3.766;2023-04-24T15:28:23;1.10;;;0.60;;
63280;SDS011;49406;51.044;3.766;2023-04-24T15:30:58;3.80;;;1.10;;
63280;SDS011;49406;51.044;3.766;2023-04-24T15:33:33;4.20;;;1.00;;
63280;SDS011;49406;51.044;3.766;2023-04-24T15:36:08;2.80;;;0.60;;
63280;SDS011;49406;51.044;3.766;2023-04-24T15:38:43;1.90;;;1.00;;
63280;SDS011;49406;51.044;3.766;2023-04-24T15:41:17;0.90;;;0.40;;
63280;SDS011;49406;51.044;3.766;2023-04-24T15:43:52;2.10;;;1.20;;
63280;SDS011;49406;51.044;3.766;2023-04-24T15:46:27;4.10;;;1.20;;
63280;SDS011;49406;51.044;3.766;2023-04-24T15:49:02;2.00;;;1.40;;
63280;SDS011;49406;51.044;3.766;2023-04-24T15:51:36;5.70;;;1.80;;
63280;SDS011;49406;51.044;3.766;2023-04-24T15:54:11;3.90;;;1.20;;
63280;SDS011;49406;51.044;3.766;2023-04-24T15:56:46;2.10;;;1.60;;
63280;SDS011;49406;51.044;3.766;2023-04-24T15:59:21;0.90;;;0.70;;
63280;SDS011;49406;51.044;3.766;2023-04-24T16:01:56;2.20;;;1.70;;
63280;SDS011;49406;51.044;3.766;2023-04-24T16:04:30;3.50;;;1.90;;
63280;SDS011;49406;51.044;3.766;2023-04-24T16:07:06;2.00;;;1.00;;
63280;SDS011;49406;51.044;3.766;2023-04-24T16:09:40;2.10;;;1.40;;